Time;durP1;ratioP1;P1;durP2;ratioP2;P2;SDS_P1;SDS_P2;PMS_P1;PMS_P2;Temp;Humidity;BMP_temperature;BMP_pressure;BME280_temperature;BME280_humidity;BME280_pressure;Samples;Min_cycle;Max_cycle;Signal;HPM_P1;HPM_P2
2021/01/15 00:01:21;;;;;;;32.58;22.38;;;0.20;99.90;;;;;;5060266;28;20058;-71
2021/01/15 00:03:49;;;;;;;33.55;21.65;;;0.10;99.90;;;;;;5024846;28;20037;-71
2021/01/15 00:06:24;;;;;;;38.08;21.60;;;0.00;99.90;;;;;;5026939;28;20136;-72
2021/01/15 00:08:52;;;;;;;34.10;22.00;;;0.00;99.90;;;;;;5059706;28;20201;-71
2021/01/15 00:11:23;;;;;;;39.90;23.13;;;0.00;99.90;;;;;;5057846;28;20712;-72
2021/01/15 00:13:50;;;;;;;45.00;25.02;;;-0.10;99.90;;;;;;5067895;28;20479;-70
2021/01/15 00:16:20;;;;;;;36.45;22.50;;;-0.10;99.90;;;;;;5066714;28;20219;-71
2021/01/15 00:18:47;;;;;;;40.47;23.35;;;-0.10;99.90;;;;;;5066816;28;20048;-71
2021/01/15 00:21:19;;;;;;;39.35;23.55;;;-0.10;99.90;;;;;;5066542;28;20052;-71
2021/01/15 00:23:45;;;;;;;40.35;23.85;;;-0.10;99.90;;;;;;5065252;28;20064;-72
2021/01/15 00:26:16;;;;;;;44.70;25.98;;;-0.10;99.90;;;;;;5066038;28;20044;-71
2021/01/15 00:28:42;;;;;;;39.30;23.42;;;-0.10;99.90;;;;;;5050528;28;20482;-72
2021/01/15 00:31:09;;;;;;;45.72;24.65;;;-0.20;99.90;;;;;;5049059;28;20039;-72
2021/01/15 00:33:35;;;;;;;37.35;22.60;;;-0.20;99.90;;;;;;5066685;28;20510;-72
2021/01/15 00:36:02;;;;;;;49.22;24.90;;;-0.20;99.90;;;;;;5032479;28;20044;-72
2021/01/15 00:38:29;;;;;;;40.00;23.45;;;-0.30;99.90;;;;;;5066873;28;20056;-71
2021/01/15 00:41:07;;;;;;;43.22;24.48;;;-0.40;99.90;;;;;;5026426;28;20048;-71
2021/01/15 00:43:35;;;;;;;49.20;26.65;;;-0.40;99.90;;;;;;5046539;28;20052;-72
2021/01/15 00:46:07;;;;;;;44.33;25.58;;;-0.30;99.90;;;;;;5045151;28;20056;-72
2021/01/15 00:48:35;;;;;;;41.50;24.80;;;-0.40;99.90;;;;;;5049874;28;20107;-71
2021/01/15 00:51:09;;;;;;;45.47;23.27;;;-0.40;99.90;;;;;;5048901;28;20044;-72
2021/01/15 00:53:37;;;;;;;44.78;24.55;;;-0.40;99.90;;;;;;5050139;28;20056;-71
2021/01/15 00:56:04;;;;;;;48.83;25.90;;;-0.50;99.90;;;;;;5054778;28;20055;-71
2021/01/15 00:58:30;;;;;;;41.33;25.02;;;-0.40;99.90;;;;;;5049602;28;20052;-71
2021/01/15 01:00:57;;;;;;;42.55;23.75;;;-0.50;99.90;;;;;;5059545;28;20083;-71
2021/01/15 01:03:36;;;;;;;52.85;25.90;;;-0.50;99.90;;;;;;5029351;28;20073;-72
2021/01/15 01:06:08;;;;;;;45.38;25.20;;;-0.60;99.90;;;;;;5047333;28;20087;-72
2021/01/15 01:08:35;;;;;;;48.58;26.05;;;-0.60;99.90;;;;;;5029903;28;20148;-72
2021/01/15 01:11:02;;;;;;;49.10;26.00;;;-0.70;99.90;;;;;;5046363;28;20076;-72
2021/01/15 01:13:28;;;;;;;52.08;25.85;;;-0.70;99.90;;;;;;5044980;28;20209;-73
2021/01/15 01:15:54;;;;;;;52.67;28.00;;;-0.70;99.90;;;;;;5045724;28;20072;-72
2021/01/15 01:18:21;;;;;;;49.15;27.45;;;-0.70;99.90;;;;;;5045994;28;20053;-73
2021/01/15 01:20:47;;;;;;;45.85;25.20;;;-0.80;99.90;;;;;;5038274;28;20052;-72
2021/01/15 01:23:14;;;;;;;47.30;25.85;;;-0.80;99.90;;;;;;5012170;28;20057;-72
2021/01/15 01:25:40;;;;;;;47.10;26.13;;;-0.90;99.90;;;;;;5012056;28;20057;-72
2021/01/15 01:28:06;;;;;;;51.38;27.75;;;-1.00;99.90;;;;;;5045822;28;20045;-73
2021/01/15 01:30:33;;;;;;;53.03;27.13;;;-0.90;99.90;;;;;;5048625;28;20047;-73
2021/01/15 01:33:00;;;;;;;51.13;27.20;;;-0.90;99.90;;;;;;5048238;28;20040;-72
2021/01/15 01:35:26;;;;;;;57.22;28.45;;;-0.90;99.90;;;;;;5061843;28;20147;-72
2021/01/15 01:37:52;;;;;;;49.72;27.88;;;-1.10;99.90;;;;;;5029155;28;20426;-73
2021/01/15 01:40:20;;;;;;;54.72;28.00;;;-1.10;99.90;;;;;;5046598;28;20055;-72
2021/01/15 01:42:46;;;;;;;50.95;27.90;;;-1.10;99.90;;;;;;5065004;28;20044;-72
2021/01/15 01:45:13;;;;;;;62.40;27.50;;;-1.10;99.90;;;;;;5065388;28;20052;-73
2021/01/15 01:47:40;;;;;;;55.00;27.80;;;-1.10;99.90;;;;;;5048308;28;20414;-73
2021/01/15 01:50:08;;;;;;;59.53;28.67;;;-1.20;99.90;;;;;;5064573;28;20071;-73
2021/01/15 01:52:35;;;;;;;63.45;28.10;;;-1.20;99.90;;;;;;5048056;28;20483;-72
2021/01/15 01:55:03;;;;;;;58.55;27.50;;;-1.20;99.90;;;;;;5047791;28;20273;-72
2021/01/15 01:57:31;;;;;;;52.08;26.83;;;-1.20;99.90;;;;;;5045435;28;20114;-73
2021/01/15 01:59:57;;;;;;;57.45;27.85;;;-1.30;99.90;;;;;;5044450;28;20064;-73
2021/01/15 02:02:24;;;;;;;66.03;29.23;;;-1.30;99.90;;;;;;5044351;28;20056;-71
2021/01/15 02:04:50;;;;;;;57.25;29.63;;;-1.30;99.90;;;;;;5043732;28;20044;-73
2021/01/15 02:07:17;;;;;;;64.10;28.58;;;-1.30;99.90;;;;;;5043386;28;20041;-73
2021/01/15 02:09:54;;;;;;;64.75;29.83;;;-1.40;99.90;;;;;;5027800;28;20044;-72
2021/01/15 02:12:34;;;;;;;59.47;28.38;;;-1.40;99.90;;;;;;5042366;28;20231;-74
2021/01/15 02:15:12;;;;;;;60.13;28.08;;;-1.30;99.90;;;;;;5044227;28;20075;-73
2021/01/15 02:17:56;;;;;;;63.85;29.02;;;-1.40;99.90;;;;;;5048100;28;20045;-73
2021/01/15 02:20:31;;;;;;;70.28;30.83;;;-1.60;99.90;;;;;;5064447;28;20102;-73
2021/01/15 02:23:09;;;;;;;68.80;33.03;;;-1.60;99.90;;;;;;5062610;28;20044;-73
2021/01/15 02:26:00;;;;;;;73.65;32.67;;;-1.60;99.90;;;;;;5064290;28;20040;-73
2021/01/15 02:29:00;;;;;;;66.53;31.50;;;-1.70;99.90;;;;;;5030547;28;20121;-74
2021/01/15 02:31:45;;;;;;;71.38;30.80;;;-1.90;99.90;;;;;;5040188;28;20426;-73
2021/01/15 02:34:40;;;;;;;66.22;32.53;;;-1.90;99.90;;;;;;5062538;28;20162;-72
2021/01/15 02:37:16;;;;;;;65.63;31.35;;;-2.00;99.90;;;;;;5053103;28;21328;-73
2021/01/15 02:40:10;;;;;;;72.93;32.05;;;-2.10;99.90;;;;;;5063914;28;20605;-73
2021/01/15 02:42:38;;;;;;;73.63;31.63;;;-2.10;99.90;;;;;;5040884;28;20139;-73
2021/01/15 02:45:11;;;;;;;78.15;33.05;;;-2.20;99.90;;;;;;5061988;28;20055;-73
2021/01/15 02:47:49;;;;;;;78.88;33.15;;;-2.20;99.90;;;;;;5040995;28;20115;-73
2021/01/15 02:50:20;;;;;;;71.53;32.25;;;-2.20;99.90;;;;;;5060439;28;20079;-73
2021/01/15 02:52:47;;;;;;;80.95;35.97;;;-2.30;99.90;;;;;;5027092;28;20045;-72
2021/01/15 02:55:14;;;;;;;79.57;34.42;;;-2.30;99.90;;;;;;5010528;28;20048;-73
2021/01/15 02:57:42;;;;;;;75.18;34.40;;;-2.30;99.90;;;;;;5027180;28;20156;-72
2021/01/15 03:00:11;;;;;;;78.70;33.03;;;-2.20;99.90;;;;;;5009567;28;20045;-72
2021/01/15 03:02:56;;;;;;;89.78;33.60;;;-2.10;99.90;;;;;;5026312;28;20411;-73
2021/01/15 03:05:31;;;;;;;69.82;32.97;;;-2.20;99.90;;;;;;5045284;28;20106;-71
2021/01/15 03:08:00;;;;;;;79.05;32.97;;;-2.20;99.90;;;;;;5027470;28;20068;-73
2021/01/15 03:10:28;;;;;;;86.45;36.70;;;-2.30;99.90;;;;;;5043758;28;20052;-72
2021/01/15 03:12:57;;;;;;;90.20;35.58;;;-2.20;99.90;;;;;;5025991;28;20049;-74
2021/01/15 03:15:25;;;;;;;98.43;37.60;;;-2.00;99.90;;;;;;5026429;28;20588;-73
2021/01/15 03:17:53;;;;;;;88.97;35.63;;;-1.90;99.90;;;;;;5026752;28;20060;-73
2021/01/15 03:20:22;;;;;;;90.78;35.75;;;-1.90;99.90;;;;;;5043437;28;20127;-72
2021/01/15 03:22:52;;;;;;;80.78;33.92;;;-1.80;99.90;;;;;;5027286;28;20052;-73
2021/01/15 03:25:18;;;;;;;90.70;36.50;;;-1.60;99.90;;;;;;5026836;28;20060;-72
2021/01/15 03:27:56;;;;;;;81.50;33.13;;;-1.50;99.90;;;;;;5043521;28;20089;-73
2021/01/15 03:30:27;;;;;;;87.18;36.60;;;-1.50;99.90;;;;;;5042661;28;20054;-73
2021/01/15 03:32:59;;;;;;;89.80;35.45;;;-1.50;99.90;;;;;;5026195;28;20053;-73
2021/01/15 03:35:28;;;;;;;87.30;35.92;;;-1.50;99.90;;;;;;5044814;28;20053;-73
2021/01/15 03:38:04;;;;;;;81.22;35.40;;;-1.40;99.90;;;;;;5043135;28;20068;-72
2021/01/15 03:40:34;;;;;;;89.03;35.60;;;-1.20;99.90;;;;;;5027107;28;20053;-73
2021/01/15 03:43:01;;;;;;;86.07;34.70;;;-1.10;99.90;;;;;;5043168;28;20432;-73
2021/01/15 03:45:28;;;;;;;79.93;32.45;;;-1.20;99.90;;;;;;5020548;28;20436;-73
2021/01/15 03:47:55;;;;;;;79.63;35.38;;;-1.20;99.90;;;;;;5043815;28;20044;-73
2021/01/15 03:50:21;;;;;;;81.97;33.92;;;-1.20;99.90;;;;;;5032546;28;20048;-73
2021/01/15 03:52:48;;;;;;;78.50;34.35;;;-1.10;99.90;;;;;;5066860;28;20059;-73
2021/01/15 03:55:15;;;;;;;73.45;34.03;;;-1.10;99.90;;;;;;5033865;28;20059;-73
2021/01/15 03:57:41;;;;;;;80.60;35.60;;;-1.00;99.90;;;;;;5050720;28;20074;-73
2021/01/15 04:00:08;;;;;;;78.10;35.45;;;-0.90;99.90;;;;;;5065938;28;20110;-73
2021/01/15 04:02:36;;;;;;;81.57;35.85;;;-0.90;99.90;;;;;;5050366;28;20044;-73
2021/01/15 04:05:03;;;;;;;80.53;33.03;;;-0.80;99.90;;;;;;5067319;28;20063;-72
2021/01/15 04:07:29;;;;;;;83.72;34.78;;;-0.80;99.90;;;;;;5067060;28;20049;-73
2021/01/15 04:09:56;;;;;;;77.93;34.28;;;-0.70;99.90;;;;;;5050966;28;20072;-73
2021/01/15 04:12:23;;;;;;;79.28;34.17;;;-0.60;99.90;;;;;;5028274;28;20060;-73
2021/01/15 04:14:50;;;;;;;78.90;33.35;;;-0.60;99.90;;;;;;5047875;28;20072;-74
2021/01/15 04:17:16;;;;;;;80.10;34.50;;;-0.50;99.90;;;;;;5050583;28;20052;-74
2021/01/15 04:19:43;;;;;;;84.18;34.50;;;-0.50;99.90;;;;;;5067379;28;20084;-73
2021/01/15 04:22:09;;;;;;;78.85;32.63;;;-0.40;99.90;;;;;;5029738;28;20037;-73
2021/01/15 04:24:36;;;;;;;87.07;34.40;;;-0.40;99.90;;;;;;5030652;28;20092;-73
2021/01/15 04:27:03;;;;;;;76.97;31.90;;;-0.30;99.90;;;;;;5052129;28;20044;-73
2021/01/15 04:29:29;;;;;;;75.78;30.60;;;-0.30;99.90;;;;;;5067344;28;20094;-73
2021/01/15 04:31:55;;;;;;;77.07;30.35;;;-0.30;99.90;;;;;;5066199;28;20048;-72
2021/01/15 04:34:23;;;;;;;73.93;30.95;;;-0.20;99.90;;;;;;5034613;28;20052;-73
2021/01/15 04:36:49;;;;;;;74.30;30.42;;;-0.30;99.90;;;;;;5067020;28;20083;-73
2021/01/15 04:39:16;;;;;;;65.22;28.70;;;-0.20;99.90;;;;;;5050948;28;20057;-73
2021/01/15 04:41:43;;;;;;;72.53;28.98;;;-0.20;99.90;;;;;;5049430;28;20059;-73
2021/01/15 04:44:10;;;;;;;64.53;29.45;;;-0.10;99.90;;;;;;5049727;28;20855;-73
2021/01/15 04:46:40;;;;;;;72.03;29.05;;;-0.10;99.90;;;;;;5065152;28;20044;-73
2021/01/15 04:49:11;;;;;;;71.55;30.30;;;-0.10;99.90;;;;;;5050033;28;20055;-73
2021/01/15 04:51:40;;;;;;;71.97;29.92;;;-0.10;99.90;;;;;;5053192;28;20087;-73
2021/01/15 04:54:10;;;;;;;79.53;30.05;;;-0.10;99.90;;;;;;5013829;28;20114;-71
2021/01/15 04:56:50;;;;;;;74.57;31.00;;;0.00;99.90;;;;;;5058688;28;20116;-73
2021/01/15 04:59:18;;;;;;;81.60;31.67;;;0.00;99.90;;;;;;5031652;28;20137;-73
2021/01/15 05:01:46;;;;;;;84.57;31.45;;;0.00;99.90;;;;;;5065240;28;20422;-74
2021/01/15 05:04:18;;;;;;;80.80;31.05;;;0.00;99.90;;;;;;5066285;28;20052;-72
2021/01/15 05:06:53;;;;;;;80.35;31.60;;;0.00;99.90;;;;;;5051280;28;20055;-73
2021/01/15 05:09:23;;;;;;;75.47;31.48;;;0.00;99.90;;;;;;5046147;28;20048;-71
2021/01/15 05:11:52;;;;;;;80.82;31.25;;;0.00;99.90;;;;;;5046731;28;20041;-72
2021/01/15 05:14:21;;;;;;;82.95;31.52;;;0.00;99.90;;;;;;5044930;28;20507;-73
2021/01/15 05:16:49;;;;;;;74.40;29.70;;;0.00;99.90;;;;;;5029310;28;20110;-73
2021/01/15 05:19:17;;;;;;;70.30;30.90;;;0.00;99.90;;;;;;5046108;28;20118;-73
2021/01/15 05:21:44;;;;;;;65.90;29.63;;;0.10;99.90;;;;;;5060322;28;20192;-73
2021/01/15 05:24:11;;;;;;;65.97;28.58;;;0.10;99.90;;;;;;5048912;28;20056;-73
2021/01/15 05:26:38;;;;;;;63.38;29.52;;;0.00;99.90;;;;;;5052087;28;20171;-72
2021/01/15 05:29:06;;;;;;;62.83;28.52;;;0.10;99.90;;;;;;5044818;28;20053;-73
2021/01/15 05:32:01;;;;;;;60.80;28.30;;;0.10;99.90;;;;;;5052286;28;20044;-72
2021/01/15 05:34:28;;;;;;;57.33;27.90;;;0.00;99.90;;;;;;5009739;28;20041;-72
2021/01/15 05:36:55;;;;;;;59.80;30.10;;;0.00;99.90;;;;;;5027235;28;20668;-73
2021/01/15 05:39:27;;;;;;;50.28;25.92;;;-0.10;99.90;;;;;;5049580;28;20568;-73
2021/01/15 05:42:02;;;;;;;52.28;25.45;;;0.00;99.90;;;;;;5065283;28;20052;-73
2021/01/15 05:44:33;;;;;;;50.83;26.60;;;-0.10;99.90;;;;;;5033954;28;20043;-72
2021/01/15 05:47:00;;;;;;;49.40;24.30;;;0.00;99.90;;;;;;5068301;28;20555;-73
2021/01/15 05:49:28;;;;;;;47.30;25.35;;;0.00;99.90;;;;;;5048708;28;20040;-73
2021/01/15 05:52:07;;;;;;;51.25;26.13;;;0.00;99.90;;;;;;5046824;28;20041;-72
2021/01/15 05:54:34;;;;;;;48.63;25.75;;;0.00;99.90;;;;;;5048323;28;20407;-73
2021/01/15 05:57:02;;;;;;;49.65;25.20;;;0.10;99.90;;;;;;5063870;28;20135;-73
2021/01/15 05:59:29;;;;;;;50.10;26.77;;;0.00;99.90;;;;;;5063825;28;20464;-71
2021/01/15 06:02:05;;;;;;;48.80;25.92;;;0.00;99.90;;;;;;5046683;28;20040;-73
2021/01/15 06:04:31;;;;;;;47.58;25.60;;;0.00;99.90;;;;;;5047691;28;20130;-73
2021/01/15 06:07:16;;;;;;;30.30;18.13;;;0.00;99.90;;;;;;5062430;28;20444;-74
2021/01/15 06:09:45;;;;;;;46.35;25.00;;;0.00;99.90;;;;;;5064961;28;20047;-71
2021/01/15 06:12:17;;;;;;;51.83;26.38;;;-0.10;99.90;;;;;;5046831;28;20044;-73
2021/01/15 06:14:56;;;;;;;51.50;27.45;;;-0.10;99.90;;;;;;5030859;28;20051;-73
2021/01/15 06:17:23;;;;;;;44.10;23.17;;;-0.10;99.90;;;;;;5064175;28;20118;-73
2021/01/15 06:19:53;;;;;;;39.00;22.80;;;-0.10;99.90;;;;;;5046978;28;20068;-72
2021/01/15 06:22:27;;;;;;;45.85;22.85;;;-0.10;99.90;;;;;;5046987;28;20151;-72
2021/01/15 06:25:30;;;;;;;44.45;24.27;;;-0.10;99.90;;;;;;5047340;28;20055;-71
2021/01/15 06:28:00;;;;;;;46.85;27.00;;;-0.10;99.90;;;;;;5063386;28;20032;-72
2021/01/15 06:30:28;;;;;;;48.17;24.45;;;0.00;99.90;;;;;;5021158;28;20517;-73
2021/01/15 06:33:12;;;;;;;45.17;24.27;;;0.00;99.90;;;;;;5047404;28;20048;-73
2021/01/15 06:35:43;;;;;;;47.30;24.75;;;0.00;99.90;;;;;;5047488;28;20041;-74
2021/01/15 06:38:12;;;;;;;44.17;25.58;;;0.00;99.90;;;;;;5064758;28;20044;-73
2021/01/15 06:40:42;;;;;;;39.08;22.48;;;0.00;99.90;;;;;;5047931;28;20060;-72
2021/01/15 06:43:11;;;;;;;46.33;22.98;;;0.10;99.90;;;;;;5047146;28;20139;-73
2021/01/15 06:45:40;;;;;;;41.38;22.27;;;-0.10;99.90;;;;;;5059277;28;20065;-72
2021/01/15 06:48:13;;;;;;;37.65;23.17;;;0.00;99.90;;;;;;5055534;28;20481;-72
2021/01/15 06:50:41;;;;;;;37.75;22.35;;;0.00;99.90;;;;;;5041666;28;20036;-72
2021/01/15 06:53:26;;;;;;;41.72;22.42;;;0.00;99.90;;;;;;5084365;28;20079;-71
2021/01/15 06:55:56;;;;;;;40.53;22.60;;;-0.10;99.90;;;;;;5036897;28;20041;-72
2021/01/15 06:58:36;;;;;;;45.03;23.88;;;-0.10;99.90;;;;;;5038219;28;20087;-73
2021/01/15 07:01:17;;;;;;;44.72;24.88;;;-0.20;99.90;;;;;;5043113;28;20057;-72
2021/01/15 07:04:18;;;;;;;44.20;24.58;;;-0.10;99.90;;;;;;5027723;28;20554;-73
2021/01/15 07:07:07;;;;;;;45.58;25.67;;;-0.10;99.90;;;;;;5043543;28;20053;-72
2021/01/15 07:09:35;;;;;;;47.72;26.50;;;0.00;99.90;;;;;;5028108;28;20076;-73
2021/01/15 07:12:05;;;;;;;43.97;24.60;;;0.10;99.90;;;;;;5043694;28;20080;-73
2021/01/15 07:14:43;;;;;;;43.92;24.70;;;0.10;99.90;;;;;;5025809;28;20511;-73
2021/01/15 07:17:37;;;;;;;44.90;25.13;;;0.10;99.90;;;;;;5043792;28;20103;-73
2021/01/15 07:20:07;;;;;;;42.63;25.20;;;0.00;99.90;;;;;;5029002;28;20102;-72
2021/01/15 07:22:51;;;;;;;43.25;25.42;;;0.00;99.90;;;;;;5025449;28;20076;-71
2021/01/15 07:25:19;;;;;;;46.75;25.33;;;0.00;99.90;;;;;;5042709;28;20049;-73
2021/01/15 07:27:46;;;;;;;43.65;25.65;;;0.10;99.90;;;;;;5042815;28;20554;-74
2021/01/15 07:30:14;;;;;;;44.20;25.80;;;0.10;99.90;;;;;;5023684;28;20041;-73
2021/01/15 07:32:42;;;;;;;44.75;28.33;;;0.20;99.90;;;;;;5042657;28;20063;-74
2021/01/15 07:35:14;;;;;;;44.90;26.85;;;0.20;99.90;;;;;;5044059;28;20045;-73
2021/01/15 07:37:41;;;;;;;49.30;27.20;;;0.10;99.90;;;;;;5026070;28;20190;-73
2021/01/15 07:40:17;;;;;;;46.22;28.00;;;0.10;99.90;;;;;;5026837;28;20140;-74
2021/01/15 07:42:44;;;;;;;45.80;27.70;;;0.10;99.90;;;;;;5043248;28;20076;-74
2021/01/15 07:45:22;;;;;;;43.38;26.08;;;0.10;99.90;;;;;;5025914;28;20049;-73
2021/01/15 07:48:13;;;;;;;53.40;30.48;;;0.00;99.90;;;;;;5042817;28;20040;-73
2021/01/15 07:50:42;;;;;;;50.35;28.20;;;0.00;99.90;;;;;;5024094;28;20068;-72
2021/01/15 07:53:24;;;;;;;47.67;27.38;;;0.10;99.90;;;;;;5018151;28;20567;-72
2021/01/15 07:55:51;;;;;;;42.50;26.42;;;0.10;99.90;;;;;;5017011;28;20647;-72
2021/01/15 07:58:22;;;;;;;43.80;26.05;;;0.20;99.90;;;;;;5025086;28;20046;-71
2021/01/15 08:00:49;;;;;;;45.08;27.58;;;0.20;99.90;;;;;;5040214;28;20049;-70
2021/01/15 08:03:17;;;;;;;47.25;27.85;;;0.20;99.90;;;;;;5042292;28;20510;-72
2021/01/15 08:05:44;;;;;;;44.35;28.42;;;0.20;99.90;;;;;;5046915;28;20140;-72
2021/01/15 08:08:19;;;;;;;49.72;30.15;;;0.20;99.90;;;;;;5062631;28;20169;-70
2021/01/15 08:10:50;;;;;;;46.50;28.63;;;0.30;99.90;;;;;;5060258;28;20041;-71
2021/01/15 08:13:25;;;;;;;45.33;29.17;;;0.30;99.90;;;;;;5036844;28;20048;-73
2021/01/15 08:15:51;;;;;;;44.53;29.80;;;0.30;99.90;;;;;;5058108;28;20041;-72
2021/01/15 08:18:19;;;;;;;44.97;29.17;;;0.30;99.90;;;;;;5063370;28;20486;-72
2021/01/15 08:20:49;;;;;;;49.35;31.73;;;0.30;99.90;;;;;;5045374;28;20492;-73
2021/01/15 08:23:21;;;;;;;45.63;31.35;;;0.40;99.90;;;;;;5062535;28;20510;-73
2021/01/15 08:25:50;;;;;;;49.47;31.50;;;0.20;99.90;;;;;;5045994;28;20048;-74
2021/01/15 08:28:17;;;;;;;47.78;30.30;;;0.30;99.90;;;;;;5047103;28;20121;-74
2021/01/15 08:30:56;;;;;;;48.70;30.08;;;0.20;99.90;;;;;;5032719;28;20048;-72
2021/01/15 08:33:24;;;;;;;47.50;30.13;;;0.30;99.90;;;;;;5037599;28;20596;-73
2021/01/15 08:35:55;;;;;;;46.60;30.63;;;0.30;99.90;;;;;;5032860;28;20107;-73
2021/01/15 08:38:30;;;;;;;43.08;29.67;;;0.30;99.90;;;;;;5065790;28;20489;-73
2021/01/15 08:41:24;;;;;;;47.63;29.92;;;0.30;99.90;;;;;;5052057;28;20106;-73
2021/01/15 08:43:55;;;;;;;45.75;29.92;;;0.40;99.90;;;;;;5034007;28;20067;-74
2021/01/15 08:46:24;;;;;;;43.67;29.02;;;0.40;99.90;;;;;;5048872;28;20072;-75
2021/01/15 08:48:51;;;;;;;39.83;28.38;;;0.40;99.90;;;;;;5064379;28;20430;-74
2021/01/15 08:51:21;;;;;;;39.28;26.60;;;0.40;99.90;;;;;;5054752;28;20047;-74
2021/01/15 08:54:04;;;;;;;35.75;26.85;;;0.40;99.90;;;;;;5029459;28;20047;-74
2021/01/15 08:56:34;;;;;;;37.45;26.95;;;0.40;99.90;;;;;;5029165;28;20118;-74
2021/01/15 08:59:09;;;;;;;32.40;26.05;;;0.50;99.90;;;;;;5045657;28;20059;-74
2021/01/15 09:01:40;;;;;;;34.53;26.85;;;0.40;99.90;;;;;;5021909;28;20110;-74
2021/01/15 09:04:09;;;;;;;35.97;26.40;;;0.60;99.90;;;;;;5029060;28;20041;-73
2021/01/15 09:06:37;;;;;;;33.15;24.90;;;0.70;99.90;;;;;;5057993;28;20049;-75
2021/01/15 09:09:07;;;;;;;29.77;24.38;;;0.60;99.90;;;;;;5048927;28;20098;-73
2021/01/15 09:11:36;;;;;;;32.17;25.13;;;0.70;99.90;;;;;;5032742;28;20052;-74
2021/01/15 09:14:04;;;;;;;33.10;26.52;;;0.70;99.90;;;;;;5027116;28;20286;-74
2021/01/15 09:16:32;;;;;;;32.28;25.25;;;0.70;99.90;;;;;;5027274;28;20236;-74
2021/01/15 09:19:10;;;;;;;30.50;24.88;;;0.70;99.90;;;;;;5045364;28;20045;-74
2021/01/15 09:21:47;;;;;;;30.92;24.95;;;0.50;99.90;;;;;;5006673;28;20598;-73
2021/01/15 09:24:15;;;;;;;34.10;25.48;;;0.50;99.90;;;;;;5009268;28;20224;-74
2021/01/15 09:26:42;;;;;;;33.80;25.50;;;0.50;99.90;;;;;;5026420;28;20408;-75
2021/01/15 09:29:10;;;;;;;30.67;26.88;;;0.60;99.90;;;;;;5028767;28;20434;-75
2021/01/15 09:31:40;;;;;;;32.72;26.02;;;0.80;99.90;;;;;;5028290;28;20048;-74
2021/01/15 09:34:12;;;;;;;27.13;24.42;;;0.70;99.90;;;;;;5012404;28;20045;-74
2021/01/15 09:36:45;;;;;;;27.98;24.60;;;0.80;99.90;;;;;;5011996;28;20071;-74
2021/01/15 09:39:13;;;;;;;32.50;26.20;;;0.80;99.90;;;;;;5047833;28;20048;-74
2021/01/15 09:41:54;;;;;;;35.25;26.90;;;0.70;99.90;;;;;;5028507;28;20091;-74
2021/01/15 09:44:23;;;;;;;28.27;25.35;;;0.80;99.90;;;;;;5028655;28;20068;-74
2021/01/15 09:46:55;;;;;;;36.80;28.00;;;0.70;99.90;;;;;;5043888;28;20045;-73
2021/01/15 09:49:22;;;;;;;36.78;27.63;;;0.60;99.90;;;;;;5045742;28;20049;-74
2021/01/15 09:51:50;;;;;;;35.20;27.90;;;0.50;99.90;;;;;;5043466;28;20041;-74
2021/01/15 09:54:17;;;;;;;31.98;28.13;;;0.60;99.90;;;;;;5024073;28;20508;-75
2021/01/15 09:56:44;;;;;;;37.72;28.27;;;0.60;99.90;;;;;;5027705;28;20118;-74
2021/01/15 09:59:14;;;;;;;33.33;26.02;;;0.70;99.90;;;;;;5043710;28;20057;-73
2021/01/15 10:01:41;;;;;;;33.67;27.45;;;0.70;99.90;;;;;;5026806;28;20085;-75
2021/01/15 10:04:07;;;;;;;37.17;28.92;;;0.70;99.90;;;;;;5044212;28;20048;-75
2021/01/15 10:06:38;;;;;;;33.35;28.48;;;0.70;99.90;;;;;;5039816;28;20045;-75
2021/01/15 10:09:06;;;;;;;41.58;29.10;;;0.80;99.90;;;;;;5064755;28;20090;-74
2021/01/15 10:11:35;;;;;;;40.53;31.73;;;0.80;99.90;;;;;;5026103;28;20045;-75
2021/01/15 10:14:09;;;;;;;39.40;30.48;;;0.80;99.90;;;;;;5063557;28;20215;-75
2021/01/15 10:16:37;;;;;;;38.15;28.35;;;0.80;99.90;;;;;;5017466;28;20056;-75
2021/01/15 10:19:05;;;;;;;39.95;30.52;;;0.80;99.90;;;;;;5028310;28;20045;-76
2021/01/15 10:21:32;;;;;;;38.92;30.65;;;0.80;99.90;;;;;;5050225;28;20067;-75
2021/01/15 10:24:00;;;;;;;45.78;30.13;;;0.90;99.90;;;;;;5047082;28;20049;-75
2021/01/15 10:26:27;;;;;;;43.70;31.50;;;0.90;99.90;;;;;;5064392;28;20048;-74
2021/01/15 10:28:58;;;;;;;38.58;28.65;;;0.90;99.90;;;;;;5047971;28;20161;-75
2021/01/15 10:31:30;;;;;;;39.17;29.05;;;0.80;99.90;;;;;;5046408;28;20059;-74
2021/01/15 10:34:02;;;;;;;38.17;30.50;;;0.80;99.90;;;;;;5063660;28;20712;-75
2021/01/15 10:36:29;;;;;;;35.47;31.02;;;0.90;99.90;;;;;;5061761;28;20114;-75
2021/01/15 10:38:56;;;;;;;36.45;29.60;;;1.00;99.90;;;;;;5048822;28;20044;-74
2021/01/15 10:41:34;;;;;;;38.08;30.38;;;1.00;99.90;;;;;;5055136;28;20045;-74
2021/01/15 10:44:03;;;;;;;38.00;29.95;;;0.80;99.90;;;;;;5047754;28;20048;-74
2021/01/15 10:46:36;;;;;;;43.22;31.60;;;0.70;99.90;;;;;;5029032;28;20048;-74
2021/01/15 10:49:07;;;;;;;44.97;32.20;;;0.70;99.90;;;;;;5047055;28;20052;-74
2021/01/15 10:51:34;;;;;;;42.13;31.45;;;0.80;99.90;;;;;;5045957;28;20453;-75
2021/01/15 10:54:01;;;;;;;37.30;31.27;;;0.90;99.90;;;;;;5046854;28;20050;-73
2021/01/15 10:56:42;;;;;;;44.97;33.58;;;1.00;99.90;;;;;;5063791;28;20433;-74
2021/01/15 10:59:09;;;;;;;43.50;32.95;;;1.00;99.90;;;;;;5047301;28;20074;-73
2021/01/15 11:01:43;;;;;;;45.38;33.42;;;1.00;99.90;;;;;;5045958;28;20052;-74
2021/01/15 11:04:11;;;;;;;52.80;35.25;;;1.00;99.90;;;;;;5045907;28;20048;-75
2021/01/15 11:06:39;;;;;;;48.00;33.40;;;0.90;99.90;;;;;;5058540;28;20112;-74
2021/01/15 11:09:08;;;;;;;45.65;33.47;;;0.90;99.90;;;;;;5047417;28;20059;-74
2021/01/15 11:11:56;;;;;;;47.08;34.40;;;0.90;99.90;;;;;;5038062;28;20044;-74
2021/01/15 11:14:23;;;;;;;45.38;33.42;;;0.90;99.90;;;;;;5029874;28;20044;-74
2021/01/15 11:16:50;;;;;;;46.50;36.13;;;0.90;99.90;;;;;;5038547;28;20118;-76
2021/01/15 11:19:16;;;;;;;50.30;37.03;;;0.90;99.90;;;;;;5041715;28;20058;-74
2021/01/15 11:21:43;;;;;;;44.97;33.03;;;0.80;99.90;;;;;;5055255;28;20135;-74
2021/01/15 11:24:10;;;;;;;44.95;35.17;;;0.80;99.90;;;;;;5065097;28;20048;-74
2021/01/15 11:26:37;;;;;;;47.78;34.72;;;0.80;99.90;;;;;;5049858;28;20053;-75
2021/01/15 11:29:06;;;;;;;50.95;35.92;;;0.80;99.90;;;;;;5037278;28;20462;-74
2021/01/15 11:31:32;;;;;;;49.53;36.85;;;0.80;99.90;;;;;;5029739;28;20146;-75
2021/01/15 11:34:00;;;;;;;41.40;32.42;;;0.80;99.90;;;;;;5026656;28;20125;-74
2021/01/15 11:36:30;;;;;;;45.30;35.53;;;0.80;99.90;;;;;;5040480;28;20037;-74
2021/01/15 11:39:00;;;;;;;50.90;37.03;;;0.70;99.90;;;;;;5045922;28;20075;-75
2021/01/15 11:41:27;;;;;;;47.65;36.55;;;0.70;99.90;;;;;;5055280;28;20510;-74
2021/01/15 11:43:53;;;;;;;47.38;34.80;;;0.80;99.90;;;;;;5043162;28;20094;-74
2021/01/15 11:46:26;;;;;;;63.13;37.70;;;0.70;99.90;;;;;;5048429;28;20147;-74
2021/01/15 11:48:53;;;;;;;48.95;34.92;;;0.70;99.90;;;;;;5050995;28;20076;-74
2021/01/15 11:51:20;;;;;;;51.03;36.65;;;0.80;99.90;;;;;;5034560;28;20045;-75
2021/01/15 11:53:46;;;;;;;47.90;36.80;;;0.70;99.90;;;;;;5040219;28;20059;-75
2021/01/15 11:56:13;;;;;;;49.75;35.60;;;0.80;99.90;;;;;;5026556;28;20049;-74
2021/01/15 11:58:40;;;;;;;47.13;35.42;;;1.00;99.90;;;;;;5037878;28;20127;-75
2021/01/15 12:01:06;;;;;;;42.55;32.10;;;1.10;99.90;;;;;;5040225;28;20141;-75
2021/01/15 12:03:34;;;;;;;44.03;33.13;;;1.20;99.90;;;;;;5043378;28;20057;-74
2021/01/15 12:06:01;;;;;;;40.40;31.33;;;1.20;99.90;;;;;;5047021;28;20048;-73
2021/01/15 12:08:28;;;;;;;42.70;33.72;;;1.10;99.90;;;;;;5072511;28;20106;-75
2021/01/15 12:11:06;;;;;;;43.70;35.15;;;1.00;99.90;;;;;;5062166;28;20482;-74
2021/01/15 12:13:34;;;;;;;43.65;32.45;;;1.00;99.90;;;;;;5049946;28;20040;-74
2021/01/15 12:16:01;;;;;;;43.13;32.42;;;0.90;99.90;;;;;;5053703;28;20044;-74
2021/01/15 12:18:28;;;;;;;32.38;28.92;;;0.90;99.90;;;;;;5058546;28;20204;-74
2021/01/15 12:20:58;;;;;;;34.85;30.73;;;0.90;99.90;;;;;;5044209;28;20827;-74
2021/01/15 12:23:25;;;;;;;38.55;29.17;;;0.80;99.90;;;;;;5041353;28;20090;-74
2021/01/15 12:25:52;;;;;;;36.78;30.58;;;0.80;99.90;;;;;;5033186;28;20098;-73
2021/01/15 12:28:19;;;;;;;41.10;33.15;;;0.80;99.90;;;;;;5032838;28;20510;-74
2021/01/15 12:30:46;;;;;;;39.20;32.97;;;0.80;99.90;;;;;;5045106;28;20504;-73
2021/01/15 12:33:16;;;;;;;33.35;29.92;;;0.70;99.90;;;;;;5064602;28;20080;-73
2021/01/15 12:35:44;;;;;;;34.63;29.13;;;0.60;99.90;;;;;;5046840;28;20071;-73
2021/01/15 12:38:12;;;;;;;37.00;31.17;;;0.60;99.90;;;;;;5048997;28;20048;-73
2021/01/15 12:40:40;;;;;;;37.20;31.50;;;0.70;99.90;;;;;;5061219;28;20124;-73
2021/01/15 12:43:07;;;;;;;42.15;32.03;;;0.70;99.90;;;;;;5065264;28;20055;-74
2021/01/15 12:45:35;;;;;;;35.40;30.95;;;0.80;99.90;;;;;;5063766;28;20129;-73
2021/01/15 12:48:06;;;;;;;34.67;30.73;;;0.90;99.90;;;;;;5049330;28;20517;-71
2021/01/15 12:50:33;;;;;;;39.28;31.20;;;0.80;99.90;;;;;;5066420;28;20087;-73